createdAt,value
2022-08-05T00:04:46.294Z,2.90
2022-08-05T00:10:08.341Z,3.42
2022-08-05T00:15:14.412Z,3.30
2022-08-05T00:20:42.529Z,3.25
2022-08-05T00:25:46.087Z,2.83
2022-08-05T00:30:46.531Z,3.55
2022-08-05T00:36:16.119Z,2.97
2022-08-05T00:41:14.143Z,3.22
2022-08-05T00:46:15.930Z,2.90
2022-08-05T00:51:51.194Z,3.30
2022-08-05T00:56:51.561Z,3.10
2022-08-05T01:01:55.655Z,3.03
2022-08-05T01:07:05.979Z,2.67
2022-08-05T01:12:19.176Z,2.97
2022-08-05T01:17:45.885Z,3.75
2022-08-05T01:23:36.245Z,3.58
2022-08-05T01:28:41.196Z,3.85
2022-08-05T01:34:22.557Z,3.33
2022-08-05T01:39:36.838Z,3.38
2022-08-05T01:44:54.073Z,3.42
2022-08-05T01:50:01.847Z,3.83
2022-08-05T01:55:06.009Z,3.28
2022-08-05T02:00:06.041Z,3.67
2022-08-05T02:05:12.846Z,3.67
2022-08-05T02:10:17.686Z,4.10
2022-08-05T02:15:33.274Z,3.80
2022-08-05T02:20:43.645Z,4.47
2022-08-05T02:25:50.220Z,3.38
2022-08-05T02:30:58.567Z,4.40
2022-08-05T02:36:01.213Z,3.45
2022-08-05T02:41:00.611Z,3.88
2022-08-05T02:46:18.728Z,4.00
2022-08-05T02:52:03.370Z,3.83
2022-08-05T02:56:52.707Z,4.00
2022-08-05T03:01:52.226Z,3.72
2022-08-05T03:06:55.567Z,3.92
2022-08-05T03:12:13.793Z,3.30
2022-08-05T03:17:20.255Z,4.45
2022-08-05T03:22:32.196Z,3.92
2022-08-05T03:27:59.574Z,3.35
2022-08-05T03:32:56.683Z,3.85
2022-08-05T03:37:58.488Z,3.40
2022-08-05T03:43:15.940Z,3.75
2022-08-05T03:48:29.228Z,3.83
2022-08-05T03:55:06.890Z,4.25
2022-08-05T03:59:15.142Z,4.65
2022-08-05T04:04:26.557Z,4.55
2022-08-05T04:09:27.350Z,4.55
2022-08-05T04:14:29.745Z,4.38
2022-08-05T04:19:42.028Z,4.43
2022-08-05T04:24:52.589Z,4.53
2022-08-05T04:29:53.336Z,5.03
2022-08-05T04:34:53.545Z,4.43
2022-08-05T04:39:57.261Z,4.25
2022-08-05T04:45:03.065Z,4.03
2022-08-05T04:50:11.509Z,4.45
2022-08-05T04:55:16.238Z,4.40
2022-08-05T05:00:23.515Z,4.57
2022-08-05T05:05:28.216Z,4.88
2022-08-05T05:10:52.608Z,4.55
2022-08-05T05:16:02.121Z,5.20
2022-08-05T05:21:07.731Z,4.53
2022-08-05T05:26:06.825Z,3.83
2022-08-05T05:31:05.860Z,4.05
2022-08-05T05:36:06.686Z,4.18
2022-08-05T05:41:07.675Z,4.45
2022-08-05T05:46:12.121Z,4.70
2022-08-05T05:51:28.170Z,4.22
2022-08-05T05:56:32.862Z,5.25
2022-08-05T06:01:39.922Z,7.13
2022-08-05T06:06:42.142Z,5.35
2022-08-05T06:11:40.983Z,5.80
2022-08-05T06:17:22.237Z,9.73
2022-08-05T06:22:33.578Z,11.25
2022-08-05T06:28:10.411Z,8.70
2022-08-05T06:32:56.968Z,8.77
2022-08-05T06:37:59.015Z,5.68
2022-08-05T06:43:01.424Z,5.85
2022-08-05T06:48:44.140Z,4.70
2022-08-05T06:53:22.455Z,4.55
2022-08-05T06:58:29.741Z,3.85
2022-08-05T07:03:36.480Z,4.20
2022-08-05T07:08:34.811Z,4.50
2022-08-05T07:13:59.865Z,4.00
2022-08-05T07:19:01.794Z,4.45
2022-08-05T07:24:01.217Z,4.63
2022-08-05T07:29:01.509Z,4.03
2022-08-05T07:34:02.073Z,3.97
2022-08-05T07:39:08.893Z,4.80
2022-08-05T07:44:31.310Z,5.00
2022-08-05T07:49:32.281Z,5.13
2022-08-05T07:54:49.237Z,3.90
2022-08-05T07:59:48.794Z,3.80
2022-08-05T08:04:55.847Z,4.05
2022-08-05T08:09:55.025Z,3.25
2022-08-05T08:14:56.593Z,3.08
2022-08-05T08:20:43.531Z,3.83
2022-08-05T08:25:16.079Z,3.97
2022-08-05T08:30:27.006Z,3.20
2022-08-05T08:35:53.845Z,2.88
2022-08-05T08:41:05.853Z,3.10
2022-08-05T08:46:06.163Z,2.58
2022-08-05T08:51:54.571Z,3.00
2022-08-05T08:56:47.617Z,2.92
2022-08-05T09:01:57.591Z,2.88
2022-08-05T09:07:03.692Z,3.33
2022-08-05T09:12:30.035Z,3.28
2022-08-05T09:17:43.088Z,2.80
2022-08-05T09:23:19.685Z,2.63
2022-08-05T09:28:31.475Z,3.92
2022-08-05T09:33:35.232Z,2.75
2022-08-05T09:43:45.290Z,3.20
2022-08-05T09:49:07.345Z,3.10
2022-08-05T09:54:11.570Z,3.17
2022-08-05T09:59:17.248Z,3.30
2022-08-05T10:04:19.067Z,3.03
2022-08-05T10:09:45.156Z,3.50
2022-08-05T10:14:54.329Z,3.13
2022-08-05T10:20:04.458Z,4.57
2022-08-05T10:25:15.592Z,3.80
2022-08-05T10:32:46.670Z,4.72
2022-08-05T10:35:40.606Z,2.85
2022-08-05T10:40:58.221Z,3.75
2022-08-05T10:46:06.239Z,4.57
2022-08-05T10:51:29.772Z,3.63
2022-08-05T10:56:34.633Z,3.60
2022-08-05T11:01:54.750Z,3.25
2022-08-05T11:07:16.309Z,3.42
2022-08-05T11:12:35.114Z,2.80
2022-08-05T11:17:59.813Z,2.83
2022-08-05T11:24:02.526Z,2.47
2022-08-05T11:29:13.291Z,2.70
2022-08-05T11:34:38.739Z,3.90
2022-08-05T11:40:00.510Z,2.88
2022-08-05T11:45:14.513Z,2.58
2022-08-05T11:50:31.453Z,2.50
2022-08-05T11:55:36.417Z,2.67
2022-08-05T12:00:37.992Z,2.30
2022-08-05T12:05:43.444Z,2.30
2022-08-05T12:10:45.848Z,2.67
2022-08-05T12:15:49.717Z,2.78
2022-08-05T12:20:51.937Z,2.85
2022-08-05T12:26:08.203Z,2.47
2022-08-05T12:31:09.058Z,2.78
2022-08-05T12:36:14.826Z,2.42
2022-08-05T12:41:17.482Z,2.63
2022-08-05T12:46:31.438Z,2.92
2022-08-05T12:52:13.116Z,4.85
2022-08-05T12:57:01.456Z,2.67
2022-08-05T13:02:07.894Z,2.70
2022-08-05T13:07:55.889Z,2.80
2022-08-05T13:12:57.620Z,2.25
2022-08-05T13:18:05.957Z,2.10
2022-08-05T13:23:08.847Z,2.65
2022-08-05T13:28:16.258Z,2.33
2022-08-05T13:34:24.831Z,2.40
2022-08-05T13:38:43.256Z,2.60
2022-08-05T13:43:54.585Z,2.40
2022-08-05T13:48:57.826Z,3.03
2022-08-05T13:54:11.670Z,2.47
2022-08-05T13:59:24.023Z,2.30
2022-08-05T14:05:00.529Z,2.30
2022-08-05T14:10:00.507Z,2.25
2022-08-05T14:16:04.580Z,2.80
2022-08-05T14:20:38.247Z,1.88
2022-08-05T14:25:45.038Z,2.22
2022-08-05T14:35:54.352Z,2.08
2022-08-05T14:46:08.773Z,2.40
2022-08-05T14:51:09.972Z,3.03
2022-08-05T14:57:00.350Z,2.30
2022-08-05T15:08:58.720Z,2.42
2022-08-05T15:13:52.172Z,2.80
2022-08-05T15:18:54.765Z,2.53
2022-08-05T15:23:59.917Z,2.63
2022-08-05T15:28:59.268Z,2.85
2022-08-05T15:34:32.076Z,2.22
2022-08-05T15:40:58.323Z,2.70
2022-08-05T15:45:07.050Z,2.58
2022-08-05T15:50:13.969Z,2.60
2022-08-05T15:55:25.107Z,2.40
2022-08-05T16:01:03.485Z,2.80
2022-08-05T16:06:06.561Z,2.60
2022-08-05T16:11:05.355Z,2.70
2022-08-05T16:16:25.484Z,2.50
2022-08-05T16:22:00.136Z,2.45
2022-08-05T16:27:02.049Z,2.00
2022-08-05T16:32:14.175Z,2.97
2022-08-05T16:48:43.082Z,3.97
2022-08-05T16:54:04.998Z,6.10
2022-08-05T16:59:14.671Z,6.10
2022-08-05T17:04:15.258Z,5.22
2022-08-05T17:09:15.718Z,4.10
2022-08-05T17:14:34.465Z,4.45
2022-08-05T17:19:36.543Z,3.58
2022-08-05T17:24:42.285Z,3.92
2022-08-05T17:29:59.515Z,3.78
2022-08-05T17:35:04.314Z,3.72
2022-08-05T17:45:18.106Z,3.78
2022-08-05T17:50:27.631Z,3.55
2022-08-05T17:55:37.217Z,4.05
2022-08-05T18:00:44.657Z,3.58
2022-08-05T18:05:53.447Z,3.78
2022-08-05T18:10:54.136Z,3.95
2022-08-05T18:15:52.612Z,3.88
2022-08-05T18:21:19.554Z,4.00
2022-08-05T18:26:27.800Z,4.10
2022-08-05T18:31:33.958Z,4.03
2022-08-05T18:36:41.356Z,4.13
2022-08-05T18:42:01.850Z,4.70
2022-08-05T18:47:15.663Z,4.50
2022-08-05T18:52:35.896Z,4.13
2022-08-05T18:57:50.100Z,3.65
2022-08-05T19:03:04.732Z,4.10
2022-08-05T19:08:21.331Z,3.80
2022-08-05T19:13:22.669Z,3.92
2022-08-05T19:18:40.470Z,3.97
2022-08-05T19:24:07.124Z,3.88
2022-08-05T19:29:07.162Z,3.80
2022-08-05T19:34:09.212Z,4.72
2022-08-05T19:39:13.206Z,4.68
2022-08-05T19:44:17.295Z,4.10
2022-08-05T19:49:19.442Z,4.22
2022-08-05T19:54:31.559Z,4.10
2022-08-05T20:00:01.193Z,3.58
2022-08-05T20:04:58.854Z,3.20
2022-08-05T20:15:23.073Z,3.72
2022-08-05T20:20:49.522Z,3.77
2022-08-05T20:25:52.236Z,3.92
2022-08-05T20:30:53.212Z,3.60
2022-08-05T20:35:55.431Z,3.63
2022-08-05T20:40:55.519Z,3.93
2022-08-05T20:46:00.231Z,3.90
2022-08-05T20:51:00.671Z,3.95
2022-08-05T20:56:09.366Z,4.07
2022-08-05T21:01:11.858Z,3.60
2022-08-05T21:06:27.523Z,4.18
2022-08-05T21:12:07.662Z,4.03
2022-08-05T21:16:52.909Z,3.97
2022-08-05T21:22:00.597Z,3.25
2022-08-05T21:27:02.096Z,3.40
2022-08-05T21:32:03.891Z,4.07
2022-08-05T21:37:05.639Z,4.13
2022-08-05T21:42:05.554Z,3.58
2022-08-05T21:47:32.853Z,3.20
2022-08-05T21:52:28.850Z,3.72
2022-08-05T21:57:52.877Z,3.85
2022-08-05T22:03:15.937Z,3.13
2022-08-05T22:08:51.988Z,3.95
2022-08-05T22:14:05.741Z,4.25
2022-08-05T22:20:00.467Z,4.30
2022-08-05T22:24:57.767Z,4.40
2022-08-05T22:30:00.921Z,4.53
2022-08-05T22:34:59.170Z,4.85
2022-08-05T22:39:57.866Z,3.75
2022-08-05T22:45:00.110Z,4.00
2022-08-05T22:50:21.599Z,6.30
2022-08-05T22:55:24.022Z,5.88
2022-08-05T23:00:27.292Z,5.30
2022-08-05T23:05:25.522Z,5.90
2022-08-05T23:10:24.432Z,5.28
2022-08-05T23:15:29.380Z,5.35
2022-08-05T23:20:37.531Z,5.10
2022-08-05T23:25:52.099Z,5.15
2022-08-05T23:31:17.159Z,5.65
2022-08-05T23:36:28.344Z,5.85
2022-08-05T23:41:30.589Z,5.93
2022-08-05T23:46:33.785Z,6.00
2022-08-05T23:52:25.261Z,6.10
2022-08-05T23:57:24.701Z,6.03
